Wetterdaten: aktuell Donnerstag, 20.02.2020 02:12
Datum Zeit Temp. A. 5 cm /Boden 10 cm im Bod 20 cm iBoden 50 cm iBoden Feuchte A. Bod.Feucht 1 Luftdruck Regen Wind Richtung Richtung Sonnenschein ET UV Solar Taupunkt Windchill Windben
20.02.2020 02:12 1,9 C 0,6 C 9,4 C 5,0 C 5,6 C 91 % 8 cb 1016,7 hPa 0,0 l/m 7,2 km/h (2 Bft) SW 230 0 min 0,000 mm 0,0 UV-I 0 W/m 0,6 C 1,1 C 11,3 km/h (2 Bft)
20.02.2020 02:11 1,9 C 0,6 C 9,4 C 5,0 C 5,6 C 91 % 8 cb 1016,6 hPa 0,0 l/m 4,2 km/h (1 Bft) S-SW 194 0 min 0,000 mm 0,0 UV-I 0 W/m 0,6 C 1,9 C 9,7 km/h (2 Bft)
20.02.2020 02:10 1,9 C 0,6 C 7,8 C 5,0 C 5,6 C 91 % 8 cb 1016,7 hPa 0,0 l/m 4,4 km/h (1 Bft) S-SW 202 0 min 0,000 mm 0,0 UV-I 0 W/m 0,6 C 1,9 C 11,3 km/h (2 Bft)
20.02.2020 02:09 2,0 C 0,6 C 11,1 C 5,0 C 5,6 C 91 % 8 cb 1016,7 hPa 0,0 l/m 1,5 km/h (1 Bft) SW 227 0 min 0,000 mm 0,0 UV-I 0 W/m 0,7 C 2,0 C 6,4 km/h (2 Bft)
20.02.2020 02:08 2,0 C 0,6 C 10,6 C 5,0 C 5,6 C 91 % 8 cb 1016,6 hPa 0,0 l/m 1,5 km/h (1 Bft) SW 219 0 min 0,000 mm 0,0 UV-I 0 W/m 0,7 C 2,0 C 3,2 km/h (1 Bft)
20.02.2020 02:07 2,0 C 0,6 C 10,6 C 5,0 C 5,6 C 91 % 8 cb 1016,6 hPa 0,0 l/m 2,5 km/h (1 Bft) SW 219 0 min 0,000 mm 0,0 UV-I 0 W/m 0,7 C 2,0 C 4,8 km/h (1 Bft)
20.02.2020 02:06 2,0 C 0,6 C 8,3 C 5,0 C 5,6 C 91 % 8 cb 1016,7 hPa 0,0 l/m 2,7 km/h (1 Bft) SW 219 0 min 0,000 mm 0,0 UV-I 0 W/m 0,7 C 2,0 C 3,2 km/h (1 Bft)
20.02.2020 02:05 2,0 C 0,6 C 9,4 C 5,0 C 5,6 C 91 % 8 cb 1016,7 hPa 0,0 l/m 1,8 km/h (1 Bft) SW 225 0 min 0,000 mm 0,0 UV-I 0 W/m 0,7 C 2,0 C 6,4 km/h (2 Bft)
20.02.2020 02:04 2,1 C 0,6 C 8,3 C 5,0 C 5,6 C 91 % 8 cb 1016,8 hPa 0,0 l/m 2,7 km/h (1 Bft) SW 221 0 min 0,000 mm 0,0 UV-I 0 W/m 0,8 C 2,1 C 6,4 km/h (2 Bft)
20.02.2020 02:03 2,1 C 0,6 C 9,4 C 5,0 C 5,6 C 91 % 8 cb 1016,7 hPa 0,0 l/m 3,9 km/h (1 Bft) S-SW 212 0 min 0,000 mm 0,0 UV-I 0 W/m 0,8 C 2,1 C 9,7 km/h (2 Bft)
20.02.2020 02:01 2,1 C 0,6 C 8,9 C 5,0 C 5,6 C 91 % 8 cb 1016,8 hPa 0,0 l/m 2,3 km/h (1 Bft) S-SW 208 0 min 0,000 mm 0,0 UV-I 0 W/m 0,8 C 2,1 C 4,8 km/h (1 Bft)
20.02.2020 02:00 2,1 C 0,6 C 8,9 C 5,0 C 5,6 C 91 % 8 cb 1016,8 hPa 0,0 l/m 2,8 km/h (1 Bft) S-SW 199 0 min 0,000 mm 0,0 UV-I 0 W/m 0,8 C 2,1 C 4,8 km/h (1 Bft)
20.02.2020 01:59 2,1 C 0,6 C 8,9 C 5,0 C 5,6 C 90 % 8 cb 1016,8 hPa 0,0 l/m 1,5 km/h (1 Bft) S-SW 203 0 min 0,000 mm 0,0 UV-I 0 W/m 0,6 C 2,1 C 3,2 km/h (1 Bft)
20.02.2020 01:58 2,1 C 0,6 C 9,4 C 5,0 C 5,6 C 90 % 8 cb 1016,8 hPa 0,0 l/m 4,4 km/h (1 Bft) S 191 0 min 0,000 mm 0,0 UV-I 0 W/m 0,6 C 2,1 C 8,0 km/h (2 Bft)
20.02.2020 01:57 2,1 C 0,6 C 9,4 C 5,0 C 5,6 C 90 % 8 cb 1016,8 hPa 0,0 l/m 4,4 km/h (1 Bft) S-SW 207 0 min 0,000 mm 0,0 UV-I 0 W/m 0,6 C 2,1 C 11,3 km/h (2 Bft)
20.02.2020 01:56 2,1 C 0,6 C 9,4 C 5,0 C 5,6 C 90 % 8 cb 1016,7 hPa 0,0 l/m 0,1 km/h (0 Bft) S-SW 211 0 min 0,000 mm 0,0 UV-I 0 W/m 0,6 C 2,1 C 1,6 km/h (1 Bft)
20.02.2020 01:55 2,1 C 0,6 C 9,4 C 5,0 C 5,6 C 90 % 8 cb 1016,7 hPa 0,0 l/m 3,5 km/h (1 Bft) S-SW 211 0 min 0,000 mm 0,0 UV-I 0 W/m 0,6 C 2,1 C 6,4 km/h (2 Bft)
20.02.2020 01:54 2,2 C 0,6 C 9,4 C 5,0 C 5,6 C 90 % 8 cb 1016,7 hPa 0,0 l/m 1,4 km/h (1 Bft) S 191 0 min 0,000 mm 0,0 UV-I 0 W/m 0,7 C 2,2 C 4,8 km/h (1 Bft)
20.02.2020 01:53 2,2 C 0,6 C 10,0 C 5,0 C 5,6 C 90 % 8 cb 1016,7 hPa 0,0 l/m 3,6 km/h (1 Bft) S-SW 196 0 min 0,000 mm 0,0 UV-I 0 W/m 0,7 C 2,2 C 6,4 km/h (2 Bft)
20.02.2020 01:52 2,2 C 0,6 C 11,1 C 5,0 C 5,6 C 90 % 8 cb 1016,7 hPa 0,0 l/m 0,3 km/h (0 Bft) S 171 0 min 0,000 mm 0,0 UV-I 0 W/m 0,7 C 2,2 C 1,6 km/h (1 Bft)
20.02.2020 01:51 2,2 C 0,6 C 8,3 C 5,0 C 5,6 C 90 % 8 cb 1016,7 hPa 0,0 l/m 1,0 km/h (0 Bft) S 171 0 min 0,000 mm 0,0 UV-I 0 W/m 0,7 C 2,2 C 3,2 km/h (1 Bft)
20.02.2020 01:50 2,2 C 0,6 C 7,2 C 5,0 C 5,6 C 90 % 8 cb 1016,7 hPa 0,0 l/m 4,5 km/h (1 Bft) S 171 0 min 0,000 mm 0,0 UV-I 0 W/m 0,7 C 2,2 C 8,0 km/h (2 Bft)
20.02.2020 01:49 2,2 C 0,6 C 9,4 C 5,0 C 5,6 C 90 % 8 cb 1016,7 hPa 0,0 l/m 4,6 km/h (1 Bft) S 190 0 min 0,000 mm 0,0 UV-I 0 W/m 0,7 C 2,2 C 11,3 km/h (2 Bft)
20.02.2020 01:48 2,2 C 0,6 C 8,3 C 5,0 C 5,6 C 90 % 8 cb 1016,7 hPa 0,0 l/m 2,5 km/h (1 Bft) S-SW 207 0 min 0,000 mm 0,0 UV-I 0 W/m 0,7 C 2,2 C 4,8 km/h (1 Bft)
20.02.2020 01:47 2,2 C 0,6 C 8,9 C 5,0 C 5,6 C 90 % 8 cb 1016,8 hPa 0,0 l/m 2,9 km/h (1 Bft) S-SW 207 0 min 0,000 mm 0,0 UV-I 0 W/m 0,7 C 2,2 C 6,4 km/h (2 Bft)
20.02.2020 01:46 2,3 C 0,6 C 8,9 C 5,0 C 5,6 C 90 % 8 cb 1016,8 hPa 0,0 l/m 3,4 km/h (1 Bft) S-SW 205 0 min 0,000 mm 0,0 UV-I 0 W/m 0,8 C 2,3 C 4,8 km/h (1 Bft)
20.02.2020 01:45 2,3 C 0,6 C 8,9 C 5,0 C 5,6 C 90 % 8 cb 1016,8 hPa 0,0 l/m 2,7 km/h (1 Bft) S-SW 198 0 min 0,000 mm 0,0 UV-I 0 W/m 0,8 C 2,3 C 4,8 km/h (1 Bft)
20.02.2020 01:44 2,3 C 0,6 C 10,6 C 5,0 C 5,6 C 90 % 8 cb 1016,8 hPa 0,0 l/m 4,3 km/h (1 Bft) SW 232 0 min 0,000 mm 0,0 UV-I 0 W/m 0,8 C 2,3 C 4,8 km/h (1 Bft)
20.02.2020 01:43 2,3 C 0,6 C 8,9 C 5,0 C 5,6 C 90 % 8 cb 1016,8 hPa 0,0 l/m 5,2 km/h (1 Bft) S 178 0 min 0,000 mm 0,0 UV-I 0 W/m 0,8 C 2,3 C 6,4 km/h (2 Bft)
20.02.2020 01:42 2,3 C 0,6 C 8,9 C 5,0 C 5,6 C 90 % 8 cb 1016,8 hPa 0,0 l/m 3,1 km/h (1 Bft) S 183 0 min 0,000 mm 0,0 UV-I 0 W/m 0,8 C 2,3 C 8,0 km/h (2 Bft)
20.02.2020 01:41 2,3 C 0,6 C 8,3 C 5,0 C 5,6 C 90 % 8 cb 1016,8 hPa 0,0 l/m 4,3 km/h (1 Bft) SW 214 0 min 0,000 mm 0,0 UV-I 0 W/m 0,8 C 2,3 C 8,0 km/h (2 Bft)
20.02.2020 01:40 2,3 C 0,6 C 8,9 C 5,0 C 5,6 C 90 % 8 cb 1016,8 hPa 0,0 l/m 2,9 km/h (1 Bft) W-SW 244 0 min 0,000 mm 0,0 UV-I 0 W/m 0,8 C 2,3 C 6,4 km/h (2 Bft)
20.02.2020 01:39 2,3 C 0,6 C 9,4 C 5,0 C 5,6 C 90 % 8 cb 1016,7 hPa 0,0 l/m 5,0 km/h (1 Bft) S 190 0 min 0,000 mm 0,0 UV-I 0 W/m 0,8 C 2,3 C 8,0 km/h (2 Bft)
20.02.2020 01:38 2,3 C 1,1 C 8,3 C 5,0 C 5,6 C 90 % 8 cb 1016,8 hPa 0,0 l/m 0,7 km/h (0 Bft) S 188 0 min 0,000 mm 0,0 UV-I 0 W/m 0,8 C 2,3 C 3,2 km/h (1 Bft)
20.02.2020 01:37 2,4 C 1,1 C 8,3 C 5,0 C 5,6 C 90 % 8 cb 1016,7 hPa 0,0 l/m 2,7 km/h (1 Bft) S 189 0 min 0,000 mm 0,0 UV-I 0 W/m 0,9 C 2,4 C 6,4 km/h (2 Bft)
20.02.2020 01:36 2,4 C 1,1 C 8,3 C 5,0 C 5,6 C 90 % 8 cb 1016,8 hPa 0,0 l/m 6,6 km/h (2 Bft) S 190 0 min 0,000 mm 0,0 UV-I 0 W/m 0,9 C 2,2 C 9,7 km/h (2 Bft)
20.02.2020 01:35 2,4 C 1,1 C 9,4 C 5,0 C 5,6 C 90 % 8 cb 1016,8 hPa 0,0 l/m 3,0 km/h (1 Bft) S-SW 207 0 min 0,000 mm 0,0 UV-I 0 W/m 0,9 C 2,4 C 8,0 km/h (2 Bft)
20.02.2020 01:34 2,4 C 1,1 C 9,4 C 5,0 C 5,6 C 90 % 8 cb 1016,8 hPa 0,0 l/m 8,6 km/h (2 Bft) SW 236 0 min 0,000 mm 0,0 UV-I 0 W/m 0,9 C 0,3 C 11,3 km/h (2 Bft)
20.02.2020 01:33 2,4 C 1,1 C 8,3 C 5,0 C 5,6 C 90 % 8 cb 1016,8 hPa 0,0 l/m 4,3 km/h (1 Bft) S-SW 213 0 min 0,000 mm 0,0 UV-I 0 W/m 0,9 C 2,4 C 8,0 km/h (2 Bft)
20.02.2020 01:32 2,4 C 1,1 C 8,9 C 5,0 C 5,6 C 90 % 8 cb 1016,8 hPa 0,0 l/m 2,7 km/h (1 Bft) S-SW 203 0 min 0,000 mm 0,0 UV-I 0 W/m 0,9 C 2,4 C 6,4 km/h (2 Bft)
20.02.2020 01:31 2,4 C 1,1 C 8,9 C 5,0 C 5,6 C 90 % 8 cb 1016,8 hPa 0,0 l/m 5,3 km/h (1 Bft) SW 224 0 min 0,000 mm 0,0 UV-I 0 W/m 0,9 C 2,4 C 11,3 km/h (2 Bft)
20.02.2020 01:30 2,4 C 1,1 C 10,0 C 5,0 C 5,6 C 90 % 8 cb 1016,8 hPa 0,0 l/m 3,2 km/h (1 Bft) S-SW 196 0 min 0,000 mm 0,0 UV-I 0 W/m 0,9 C 2,4 C 4,8 km/h (1 Bft)
20.02.2020 01:29 2,4 C 1,1 C 10,0 C 5,0 C 5,6 C 90 % 8 cb 1016,8 hPa 0,0 l/m 2,7 km/h (1 Bft) S-SW 209 0 min 0,000 mm 0,0 UV-I 0 W/m 0,9 C 2,4 C 8,0 km/h (2 Bft)
20.02.2020 01:28 2,4 C 1,1 C 11,1 C 5,0 C 5,6 C 90 % 8 cb 1016,8 hPa 0,0 l/m 0,5 km/h (0 Bft) SW 217 0 min 0,000 mm 0,0 UV-I 0 W/m 0,9 C 2,4 C 3,2 km/h (1 Bft)
20.02.2020 01:27 2,4 C 1,1 C 8,9 C 5,0 C 5,6 C 90 % 8 cb 1016,8 hPa 0,0 l/m 4,1 km/h (1 Bft) SW 217 0 min 0,000 mm 0,0 UV-I 0 W/m 0,9 C 2,4 C 9,7 km/h (2 Bft)
20.02.2020 01:26 2,5 C 1,1 C 8,9 C 5,0 C 5,6 C 90 % 8 cb 1016,7 hPa 0,0 l/m 5,6 km/h (2 Bft) SW 218 0 min 0,000 mm 0,0 UV-I 0 W/m 1,0 C 2,5 C 9,7 km/h (2 Bft)
20.02.2020 01:25 2,5 C 1,1 C 10,0 C 5,0 C 5,6 C 90 % 8 cb 1016,7 hPa 0,0 l/m 5,3 km/h (1 Bft) SW 231 0 min 0,000 mm 0,0 UV-I 0 W/m 1,0 C 2,5 C 9,7 km/h (2 Bft)
20.02.2020 01:24 2,5 C 1,1 C 8,9 C 5,0 C 5,6 C 90 % 8 cb 1016,7 hPa 0,0 l/m 4,1 km/h (1 Bft) W-SW 250 0 min 0,000 mm 0,0 UV-I 0 W/m 1,0 C 2,5 C 6,4 km/h (2 Bft)
20.02.2020 01:23 2,5 C 1,1 C 10,6 C 5,0 C 5,6 C 90 % 8 cb 1016,7 hPa 0,0 l/m 2,8 km/h (1 Bft) W-SW 237 0 min 0,000 mm 0,0 UV-I 0 W/m 1,0 C 2,5 C 6,4 km/h (2 Bft)
20.02.2020 01:22 2,5 C 1,1 C 8,9 C 5,0 C 5,6 C 90 % 8 cb 1016,7 hPa 0,0 l/m 4,7 km/h (1 Bft) W-SW 252 0 min 0,000 mm 0,0 UV-I 0 W/m 1,0 C 2,5 C 6,4 km/h (2 Bft)
20.02.2020 01:21 2,5 C 1,1 C 8,9 C 5,0 C 5,6 C 90 % 8 cb 1016,7 hPa 0,0 l/m 3,5 km/h (1 Bft) SW 224 0 min 0,000 mm 0,0 UV-I 0 W/m 1,0 C 2,5 C 4,8 km/h (1 Bft)
20.02.2020 01:20 2,6 C 1,1 C 8,9 C 5,0 C 5,6 C 90 % 8 cb 1016,7 hPa 0,0 l/m 2,1 km/h (1 Bft) SW 221 0 min 0,000 mm 0,0 UV-I 0 W/m 1,1 C 2,6 C 6,4 km/h (2 Bft)
20.02.2020 01:19 2,6 C 1,1 C 10,6 C 5,0 C 5,6 C 90 % 8 cb 1016,7 hPa 0,0 l/m 3,2 km/h (1 Bft) SW 220 0 min 0,000 mm 0,0 UV-I 0 W/m 1,1 C 2,6 C 6,4 km/h (2 Bft)
20.02.2020 01:18 2,6 C 1,1 C 8,9 C 5,0 C 5,6 C 90 % 8 cb 1016,8 hPa 0,0 l/m 5,1 km/h (1 Bft) SW 215 0 min 0,000 mm 0,0 UV-I 0 W/m 1,1 C 2,6 C 8,0 km/h (2 Bft)
20.02.2020 01:17 2,6 C 1,1 C 8,9 C 5,0 C 5,6 C 90 % 8 cb 1016,8 hPa 0,0 l/m 8,0 km/h (2 Bft) S-SW 196 0 min 0,000 mm 0,0 UV-I 0 W/m 1,1 C 1,1 C 12,9 km/h (3 Bft)
20.02.2020 01:16 2,6 C 1,1 C 8,9 C 5,0 C 5,6 C 90 % 8 cb 1016,7 hPa 0,0 l/m 6,4 km/h (2 Bft) SW 226 0 min 0,000 mm 0,0 UV-I 0 W/m 1,1 C 2,6 C 11,3 km/h (2 Bft)
20.02.2020 01:15 2,6 C 1,1 C 10,6 C 5,0 C 5,6 C 90 % 8 cb 1016,7 hPa 0,0 l/m 3,5 km/h (1 Bft) SW 234 0 min 0,000 mm 0,0 UV-I 0 W/m 1,1 C 2,6 C 6,4 km/h (2 Bft)
20.02.2020 01:14 2,6 C 1,1 C 10,6 C 5,0 C 5,6 C 90 % 8 cb 1016,8 hPa 0,0 l/m 4,6 km/h (1 Bft) W-SW 239 0 min 0,000 mm 0,0 UV-I 0 W/m 1,1 C 2,6 C 9,7 km/h (2 Bft)
20.02.2020 01:13 2,6 C 1,1 C 10,6 C 5,0 C 5,6 C 90 % 8 cb 1016,8 hPa 0,0 l/m 7,4 km/h (2 Bft) S-SW 211 0 min 0,000 mm 0,0 UV-I 0 W/m 1,1 C 1,6 C 12,9 km/h (3 Bft)
20.02.2020 01:12 2,7 C 1,1 C 10,6 C 5,0 C 5,6 C 90 % 8 cb 1016,8 hPa 0,0 l/m 3,1 km/h (1 Bft) S-SW 196 0 min 0,000 mm 0,0 UV-I 0 W/m 1,2 C 2,7 C 8,0 km/h (2 Bft)
20.02.2020 01:11 2,7 C 1,1 C 7,8 C 5,0 C 5,6 C 90 % 8 cb 1016,7 hPa 0,0 l/m 6,1 km/h (2 Bft) S 180 0 min 0,000 mm 0,0 UV-I 0 W/m 1,2 C 2,7 C 8,0 km/h (2 Bft)
20.02.2020 01:10 2,7 C 1,1 C 11,1 C 5,0 C 5,6 C 90 % 8 cb 1016,7 hPa 0,0 l/m 5,2 km/h (1 Bft) SW 225 0 min 0,000 mm 0,0 UV-I 0 W/m 1,2 C 2,7 C 8,0 km/h (2 Bft)
20.02.2020 01:09 2,7 C 1,1 C 10,6 C 5,0 C 5,6 C 90 % 8 cb 1016,7 hPa 0,0 l/m 4,9 km/h (1 Bft) S-SW 210 0 min 0,000 mm 0,0 UV-I 0 W/m 1,2 C 2,7 C 9,7 km/h (2 Bft)
20.02.2020 01:08 2,7 C 1,1 C 11,1 C 5,0 C 5,6 C 90 % 8 cb 1016,7 hPa 0,0 l/m 6,4 km/h (2 Bft) S-SW 209 0 min 0,000 mm 0,0 UV-I 0 W/m 1,2 C 2,7 C 8,0 km/h (2 Bft)
20.02.2020 01:07 2,7 C 1,7 C 10,6 C 5,0 C 5,6 C 90 % 8 cb 1016,7 hPa 0,0 l/m 4,2 km/h (1 Bft) SW 229 0 min 0,000 mm 0,0 UV-I 0 W/m 1,2 C 2,7 C 8,0 km/h (2 Bft)
20.02.2020 01:06 2,7 C 1,7 C 10,6 C 5,0 C 5,6 C 90 % 8 cb 1016,8 hPa 0,0 l/m 3,8 km/h (1 Bft) SW 232 0 min 0,000 mm 0,0 UV-I 0 W/m 1,2 C 2,7 C 8,0 km/h (2 Bft)
20.02.2020 01:05 2,7 C 1,7 C 10,6 C 5,0 C 5,6 C 90 % 8 cb 1016,7 hPa 0,0 l/m 2,9 km/h (1 Bft) S-SW 194 0 min 0,000 mm 0,0 UV-I 0 W/m 1,2 C 2,7 C 12,9 km/h (3 Bft)
20.02.2020 01:04 2,7 C 1,7 C 7,8 C 5,0 C 5,6 C 90 % 8 cb 1016,8 hPa 0,0 l/m 4,5 km/h (1 Bft) SW 233 0 min 0,000 mm 0,0 UV-I 0 W/m 1,2 C 2,7 C 11,3 km/h (2 Bft)
20.02.2020 01:03 2,7 C 1,7 C 7,8 C 5,0 C 5,6 C 90 % 8 cb 1016,8 hPa 0,0 l/m 6,8 km/h (2 Bft) W-SW 245 0 min 0,000 mm 0,0 UV-I 0 W/m 1,2 C 2,3 C 11,3 km/h (2 Bft)
20.02.2020 01:01 2,8 C 1,7 C 5,0 C 5,0 C 5,6 C 90 % 8 cb 1016,8 hPa 0,0 l/m 4,8 km/h (1 Bft) W-SW 246 0 min 0,000 mm 0,0 UV-I 0 W/m 1,3 C 2,8 C 8,0 km/h (2 Bft)
20.02.2020 01:00 2,8 C 1,7 C 8,3 C 5,0 C 5,6 C 90 % 8 cb 1016,8 hPa 0,0 l/m 4,4 km/h (1 Bft) W-SW 242 0 min 0,000 mm 0,0 UV-I 0 W/m 1,3 C 2,8 C 8,0 km/h (2 Bft)
20.02.2020 00:59 2,8 C 1,7 C 8,3 C 5,0 C 5,6 C 90 % 8 cb 1016,8 hPa 0,0 l/m 5,7 km/h (2 Bft) SW 224 0 min 0,000 mm 0,0 UV-I 0 W/m 1,3 C 2,8 C 8,0 km/h (2 Bft)
20.02.2020 00:58 2,8 C 1,7 C 8,9 C 5,0 C 5,6 C 90 % 8 cb 1016,8 hPa 0,0 l/m 4,6 km/h (1 Bft) SW 215 0 min 0,000 mm 0,0 UV-I 0 W/m 1,3 C 2,8 C 9,7 km/h (2 Bft)
20.02.2020 00:57 2,8 C 1,7 C 8,9 C 5,0 C 5,6 C 90 % 8 cb 1016,8 hPa 0,0 l/m 4,6 km/h (1 Bft) S-SW 213 0 min 0,000 mm 0,0 UV-I 0 W/m 1,3 C 2,8 C 8,0 km/h (2 Bft)
20.02.2020 00:56 2,8 C 1,7 C 9,4 C 5,0 C 5,6 C 90 % 8 cb 1016,9 hPa 0,0 l/m 4,6 km/h (1 Bft) S-SW 206 0 min 0,000 mm 0,0 UV-I 0 W/m 1,3 C 2,8 C 8,0 km/h (2 Bft)
20.02.2020 00:55 2,8 C 1,7 C 8,9 C 5,0 C 5,6 C 90 % 8 cb 1016,8 hPa 0,0 l/m 1,3 km/h (1 Bft) W-SW 242 0 min 0,000 mm 0,0 UV-I 0 W/m 1,3 C 2,8 C 3,2 km/h (1 Bft)
20.02.2020 00:54 2,8 C 1,7 C 8,9 C 5,0 C 5,6 C 90 % 8 cb 1016,8 hPa 0,0 l/m 6,0 km/h (2 Bft) SW 220 0 min 0,000 mm 0,0 UV-I 0 W/m 1,3 C 2,8 C 14,5 km/h (3 Bft)
20.02.2020 00:53 2,8 C 1,7 C 11,1 C 5,0 C 5,6 C 90 % 8 cb 1016,8 hPa 0,0 l/m 5,5 km/h (2 Bft) SW 227 0 min 0,000 mm 0,0 UV-I 0 W/m 1,3 C 2,8 C 9,7 km/h (2 Bft)
20.02.2020 00:52 2,8 C 1,7 C 9,4 C 5,0 C 5,6 C 90 % 8 cb 1016,8 hPa 0,0 l/m 5,6 km/h (2 Bft) W-SW 254 0 min 0,000 mm 0,0 UV-I 0 W/m 1,3 C 2,8 C 11,3 km/h (2 Bft)
20.02.2020 00:51 2,8 C 1,7 C 9,4 C 5,0 C 5,6 C 90 % 8 cb 1016,9 hPa 0,0 l/m 9,0 km/h (2 Bft) W-SW 240 0 min 0,000 mm 0,0 UV-I 0 W/m 1,3 C 0,4 C 19,3 km/h (3 Bft)
20.02.2020 00:50 2,8 C 1,7 C 9,4 C 5,0 C 5,6 C 90 % 8 cb 1016,9 hPa 0,0 l/m 8,7 km/h (2 Bft) W-SW 239 0 min 0,000 mm 0,0 UV-I 0 W/m 1,3 C 0,7 C 14,5 km/h (3 Bft)
20.02.2020 00:49 2,9 C 1,7 C 9,4 C 5,0 C 5,6 C 90 % 8 cb 1016,9 hPa 0,0 l/m 5,6 km/h (2 Bft) W-NW 293 0 min 0,000 mm 0,0 UV-I 0 W/m 1,4 C 2,9 C 8,0 km/h (2 Bft)
20.02.2020 00:48 2,9 C 1,7 C 8,9 C 5,0 C 5,6 C 90 % 8 cb 1016,9 hPa 0,0 l/m 5,4 km/h (2 Bft) SW 215 0 min 0,000 mm 0,0 UV-I 0 W/m 1,4 C 2,9 C 9,7 km/h (2 Bft)
20.02.2020 00:47 2,9 C 1,7 C 8,9 C 5,0 C 5,6 C 90 % 8 cb 1016,9 hPa 0,0 l/m 8,3 km/h (2 Bft) SW 215 0 min 0,000 mm 0,0 UV-I 0 W/m 1,4 C 1,1 C 14,5 km/h (3 Bft)
20.02.2020 00:46 2,9 C 1,7 C 9,4 C 5,0 C 5,6 C 90 % 8 cb 1016,9 hPa 0,0 l/m 4,1 km/h (1 Bft) W-SW 242 0 min 0,000 mm 0,0 UV-I 0 W/m 1,4 C 2,9 C 9,7 km/h (2 Bft)
20.02.2020 00:45 2,9 C 1,7 C 8,9 C 5,0 C 5,6 C 90 % 8 cb 1016,9 hPa 0,0 l/m 5,5 km/h (2 Bft) W-SW 253 0 min 0,000 mm 0,0 UV-I 0 W/m 1,4 C 2,9 C 8,0 km/h (2 Bft)
20.02.2020 00:44 2,9 C 1,7 C 9,4 C 5,0 C 5,6 C 90 % 8 cb 1016,9 hPa 0,0 l/m 8,1 km/h (2 Bft) SW 219 0 min 0,000 mm 0,0 UV-I 0 W/m 1,4 C 1,3 C 14,5 km/h (3 Bft)
20.02.2020 00:43 2,9 C 1,7 C 8,9 C 5,0 C 5,6 C 90 % 8 cb 1016,9 hPa 0,0 l/m 7,7 km/h (2 Bft) W 277 0 min 0,000 mm 0,0 UV-I 0 W/m 1,4 C 1,7 C 12,9 km/h (3 Bft)
20.02.2020 00:42 2,9 C 1,7 C 10,6 C 5,0 C 5,6 C 90 % 8 cb 1016,9 hPa 0,0 l/m 7,6 km/h (2 Bft) S-SW 205 0 min 0,000 mm 0,0 UV-I 0 W/m 1,4 C 1,8 C 14,5 km/h (3 Bft)
20.02.2020 00:41 2,9 C 1,7 C 8,9 C 5,0 C 5,6 C 90 % 8 cb 1016,9 hPa 0,0 l/m 6,4 km/h (2 Bft) S 190 0 min 0,000 mm 0,0 UV-I 0 W/m 1,4 C 2,9 C 9,7 km/h (2 Bft)
20.02.2020 00:40 2,9 C 1,7 C 10,0 C 5,0 C 5,6 C 90 % 8 cb 1016,9 hPa 0,0 l/m 6,1 km/h (2 Bft) SW 219 0 min 0,000 mm 0,0 UV-I 0 W/m 1,4 C 2,9 C 9,7 km/h (2 Bft)
20.02.2020 00:39 2,9 C 2,2 C 9,4 C 5,0 C 5,6 C 90 % 8 cb 1016,9 hPa 0,0 l/m 8,5 km/h (2 Bft) SW 221 0 min 0,000 mm 0,0 UV-I 0 W/m 1,4 C 1,0 C 16,1 km/h (3 Bft)
20.02.2020 00:38 2,9 C 1,7 C 9,4 C 5,0 C 5,6 C 89 % 8 cb 1017,0 hPa 0,0 l/m 6,0 km/h (2 Bft) SW 217 0 min 0,000 mm 0,0 UV-I 0 W/m 1,3 C 2,9 C 8,0 km/h (2 Bft)
20.02.2020 00:37 3,0 C 2,2 C 9,4 C 5,0 C 5,6 C 89 % 8 cb 1017,0 hPa 0,0 l/m 11,3 km/h (2 Bft) SW 227 0 min 0,000 mm 0,0 UV-I 0 W/m 1,4 C -1,1 C 16,1 km/h (3 Bft)
20.02.2020 00:36 3,0 C 1,7 C 9,4 C 5,0 C 5,6 C 89 % 8 cb 1017,0 hPa 0,0 l/m 8,5 km/h (2 Bft) SW 217 0 min 0,000 mm 0,0 UV-I 0 W/m 1,4 C 1,1 C 12,9 km/h (3 Bft)
20.02.2020 00:35 3,0 C 1,7 C 9,4 C 5,0 C 5,6 C 89 % 8 cb 1017,0 hPa 0,0 l/m 6,7 km/h (2 Bft) SW 223 0 min 0,000 mm 0,0 UV-I 0 W/m 1,4 C 2,7 C 14,5 km/h (3 Bft)
20.02.2020 00:34 3,0 C 1,7 C 10,0 C 5,0 C 5,6 C 89 % 8 cb 1017,0 hPa 0,0 l/m 5,0 km/h (1 Bft) SW 221 0 min 0,000 mm 0,0 UV-I 0 W/m 1,4 C 3,0 C 12,9 km/h (3 Bft)
20.02.2020 00:33 3,0 C 1,7 C 11,1 C 5,0 C 5,6 C 90 % 8 cb 1017,0 hPa 0,0 l/m 2,3 km/h (1 Bft) S-SW 211 0 min 0,000 mm 0,0 UV-I 0 W/m 1,5 C 3,0 C 6,4 km/h (2 Bft)
20.02.2020 00:32 3,1 C 1,7 C 11,1 C 5,0 C 5,6 C 90 % 8 cb 1016,9 hPa 0,0 l/m 9,8 km/h (2 Bft) W-SW 246 0 min 0,000 mm 0,0 UV-I 0 W/m 1,6 C 0,1 C 14,5 km/h (3 Bft)
20.02.2020 00:31 3,1 C 1,7 C 11,1 C 5,0 C 5,6 C 89 % 8 cb 1016,9 hPa 0,0 l/m 8,9 km/h (2 Bft) S-SW 207 0 min 0,000 mm 0,0 UV-I 0 W/m 1,5 C 0,8 C 16,1 km/h (3 Bft)
20.02.2020 00:30 3,1 C 1,7 C 8,9 C 5,0 C 5,6 C 89 % 8 cb 1016,9 hPa 0,0 l/m 6,5 km/h (2 Bft) W 259 0 min 0,000 mm 0,0 UV-I 0 W/m 1,5 C 3,0 C 9,7 km/h (2 Bft)
20.02.2020 00:29 3,1 C 1,7 C 8,9 C 5,0 C 5,6 C 89 % 8 cb 1016,9 hPa 0,0 l/m 6,8 km/h (2 Bft) SW 236 0 min 0,000 mm 0,0 UV-I 0 W/m 1,5 C 2,7 C 19,3 km/h (3 Bft)
20.02.2020 00:28 3,1 C 1,7 C 8,3 C 5,0 C 5,6 C 89 % 8 cb 1017,0 hPa 0,0 l/m 6,6 km/h (2 Bft) W 270 0 min 0,000 mm 0,0 UV-I 0 W/m 1,5 C 2,9 C 12,9 km/h (3 Bft)
20.02.2020 00:27 3,1 C 1,7 C 8,3 C 5,0 C 5,6 C 89 % 8 cb 1016,9 hPa 0,0 l/m 7,6 km/h (2 Bft) W-SW 246 0 min 0,000 mm 0,0 UV-I 0 W/m 1,5 C 2,0 C 17,7 km/h (3 Bft)
20.02.2020 00:26 3,1 C 1,7 C 9,4 C 5,0 C 5,6 C 89 % 8 cb 1017,0 hPa 0,0 l/m 9,4 km/h (2 Bft) SW 236 0 min 0,000 mm 0,0 UV-I 0 W/m 1,5 C 0,4 C 17,7 km/h (3 Bft)
20.02.2020 00:25 3,1 C 1,7 C 9,4 C 5,0 C 5,6 C 89 % 8 cb 1016,9 hPa 0,0 l/m 5,1 km/h (1 Bft) SW 230 0 min 0,000 mm 0,0 UV-I 0 W/m 1,5 C 3,1 C 9,7 km/h (2 Bft)
20.02.2020 00:24 3,1 C 2,2 C 7,8 C 5,0 C 5,6 C 89 % 8 cb 1016,9 hPa 0,0 l/m 5,9 km/h (2 Bft) S-SW 211 0 min 0,000 mm 0,0 UV-I 0 W/m 1,5 C 3,1 C 11,3 km/h (2 Bft)
20.02.2020 00:23 3,1 C 2,2 C 8,3 C 5,0 C 5,6 C 89 % 8 cb 1016,9 hPa 0,0 l/m 5,0 km/h (1 Bft) SW 217 0 min 0,000 mm 0,0 UV-I 0 W/m 1,5 C 3,1 C 11,3 km/h (2 Bft)
20.02.2020 00:22 3,2 C 2,2 C 7,8 C 5,0 C 5,6 C 89 % 8 cb 1016,9 hPa 0,0 l/m 7,7 km/h (2 Bft) SW 230 0 min 0,000 mm 0,0 UV-I 0 W/m 1,6 C 2,0 C 11,3 km/h (2 Bft)
20.02.2020 00:21 3,2 C 2,2 C 8,9 C 5,0 C 5,6 C 89 % 8 cb 1016,9 hPa 0,0 l/m 7,3 km/h (2 Bft) SW 226 0 min 0,000 mm 0,0 UV-I 0 W/m 1,6 C 2,4 C 11,3 km/h (2 Bft)
20.02.2020 00:20 3,2 C 2,2 C 8,9 C 5,0 C 5,6 C 89 % 8 cb 1016,9 hPa 0,0 l/m 5,2 km/h (1 Bft) S 187 0 min 0,000 mm 0,0 UV-I 0 W/m 1,6 C 3,2 C 14,5 km/h (3 Bft)
20.02.2020 00:19 3,2 C 2,2 C 8,3 C 5,0 C 5,6 C 89 % 8 cb 1016,9 hPa 0,0 l/m 7,0 km/h (2 Bft) S-SW 192 0 min 0,000 mm 0,0 UV-I 0 W/m 1,6 C 2,6 C 12,9 km/h (3 Bft)
20.02.2020 00:18 3,2 C 2,2 C 9,4 C 5,0 C 5,6 C 89 % 8 cb 1016,8 hPa 0,0 l/m 6,8 km/h (2 Bft) SW 227 0 min 0,000 mm 0,0 UV-I 0 W/m 1,6 C 2,8 C 12,9 km/h (3 Bft)
20.02.2020 00:17 3,2 C 2,2 C 8,9 C 5,0 C 5,6 C 89 % 8 cb 1016,8 hPa 0,0 l/m 7,6 km/h (2 Bft) SW 234 0 min 0,000 mm 0,0 UV-I 0 W/m 1,6 C 2,1 C 12,9 km/h (3 Bft)
20.02.2020 00:16 3,2 C 2,2 C 8,3 C 5,0 C 5,6 C 89 % 8 cb 1016,9 hPa 0,0 l/m 8,9 km/h (2 Bft) S-SW 210 0 min 0,000 mm 0,0 UV-I 0 W/m 1,6 C 0,9 C 14,5 km/h (3 Bft)
20.02.2020 00:15 3,3 C 2,2 C 8,9 C 5,0 C 5,6 C 89 % 8 cb 1016,9 hPa 0,0 l/m 10,2 km/h (2 Bft) SW 224 0 min 0,000 mm 0,0 UV-I 0 W/m 1,7 C 0,0 C 16,1 km/h (3 Bft)
20.02.2020 00:14 3,3 C 2,2 C 7,8 C 5,0 C 5,6 C 89 % 8 cb 1016,9 hPa 0,0 l/m 6,3 km/h (2 Bft) SW 232 0 min 0,000 mm 0,0 UV-I 0 W/m 1,7 C 3,3 C 9,7 km/h (2 Bft)
20.02.2020 00:13 3,3 C 2,2 C 8,3 C 5,0 C 5,6 C 89 % 8 cb 1016,9 hPa 0,0 l/m 5,4 km/h (2 Bft) W-SW 237 0 min 0,000 mm 0,0 UV-I 0 W/m 1,7 C 3,3 C 8,0 km/h (2 Bft)
20.02.2020 00:12 3,3 C 2,2 C 7,8 C 5,0 C 5,6 C 89 % 8 cb 1016,9 hPa 0,0 l/m 8,6 km/h (2 Bft) S-SW 207 0 min 0,000 mm 0,0 UV-I 0 W/m 1,7 C 1,3 C 12,9 km/h (3 Bft)
20.02.2020 00:11 3,3 C 2,2 C 8,3 C 5,0 C 5,6 C 89 % 8 cb 1016,8 hPa 0,0 l/m 12,2 km/h (2 Bft) S-SW 210 0 min 0,000 mm 0,0 UV-I 0 W/m 1,7 C -1,3 C 20,9 km/h (4 Bft)
20.02.2020 00:10 3,3 C 2,2 C 7,8 C 5,0 C 5,6 C 89 % 8 cb 1016,8 hPa 0,0 l/m 7,4 km/h (2 Bft) SW 221 0 min 0,000 mm 0,0 UV-I 0 W/m 1,7 C 2,4 C 12,9 km/h (3 Bft)
20.02.2020 00:09 3,3 C 2,2 C 8,9 C 5,0 C 5,6 C 89 % 8 cb 1016,8 hPa 0,0 l/m 9,8 km/h (2 Bft) SW 226 0 min 0,000 mm 0,0 UV-I 0 W/m 1,7 C 0,3 C 17,7 km/h (3 Bft)
20.02.2020 00:08 3,3 C 2,2 C 8,3 C 5,0 C 5,6 C 89 % 8 cb 1016,8 hPa 0,0 l/m 8,0 km/h (2 Bft) W-SW 239 0 min 0,000 mm 0,0 UV-I 0 W/m 1,7 C 1,8 C 12,9 km/h (3 Bft)
20.02.2020 00:07 3,4 C 2,2 C 8,9 C 5,0 C 5,6 C 89 % 8 cb 1016,8 hPa 0,0 l/m 7,1 km/h (2 Bft) SW 215 0 min 0,000 mm 0,0 UV-I 0 W/m 1,8 C 2,7 C 12,9 km/h (3 Bft)
20.02.2020 00:06 3,4 C 2,2 C 8,9 C 5,0 C 5,6 C 89 % 8 cb 1016,8 hPa 0,0 l/m 8,6 km/h (2 Bft) SW 223 0 min 0,000 mm 0,0 UV-I 0 W/m 1,8 C 1,4 C 12,9 km/h (3 Bft)
20.02.2020 00:05 3,4 C 2,2 C 6,7 C 5,0 C 5,6 C 89 % 8 cb 1016,8 hPa 0,0 l/m 8,3 km/h (2 Bft) SW 227 0 min 0,000 mm 0,0 UV-I 0 W/m 1,8 C 1,7 C 14,5 km/h (3 Bft)
20.02.2020 00:04 3,4 C 2,2 C 6,7 C 5,0 C 5,6 C 89 % 8 cb 1016,7 hPa 0,0 l/m 4,9 km/h (1 Bft) SW 221 0 min 0,000 mm 0,0 UV-I 0 W/m 1,8 C 3,4 C 8,0 km/h (2 Bft)
20.02.2020 00:03 3,4 C 2,2 C 8,9 C 5,0 C 5,6 C 89 % 8 cb 1016,7 hPa 0,0 l/m 10,2 km/h (2 Bft) S-SW 213 0 min 0,000 mm 0,0 UV-I 0 W/m 1,8 C 0,2 C 19,3 km/h (3 Bft)
20.02.2020 00:02 3,4 C 2,2 C 8,9 C 5,0 C 5,6 C 89 % 8 cb 1016,7 hPa 0,0 l/m 6,8 km/h (2 Bft) S-SW 212 0 min 0,000 mm 0,0 UV-I 0 W/m 1,8 C 3,0 C 12,9 km/h (3 Bft)
20.02.2020 00:00 3,5 C 2,2 C 7,2 C 5,0 C 5,6 C 89 % 8 cb 1016,8 hPa 0,0 l/m 5,9 km/h (2 Bft) W-SW 255 0 min 0,000 mm 0,0 UV-I 0 W/m 1,9 C 3,5 C 9,7 km/h (2 Bft)
_ Min-Zeit 02:10 01:39 01:01 00:00 00:00 00:00 00:00 02:07 - 01:56 - - - - - - 02:10 00:11 01:52
Minimum _ 1,9 C 0,6 C 5,0 C 5,0 C 5,6 C 89 % 8 cb 1016,6 hPa - 0,1 km/h (0 Bft) - - - - - - 0,6 C -1,3 C 1,6 km/h (1 Bft)
_ Max-Zeit 00:00 00:00 00:31 00:00 00:00 02:00 00:00 00:26 00:00 00:11 - - 00:00 00:00 00:00 00:00 00:00 00:00 00:11
Maximum _ 3,5 C 2,2 C 11,1 C 5,0 C 5,6 C 91 % 8 cb 1017,0 hPa 0,0 l/m 12,2 km/h
S-SW (2 Bft)
- - 0 min 0,000 mm 0,0 UV-I 0 W/m 1,9 C 3,5 C 20,9 km/h
SW (4 Bft)
Durchschnitt _ 2,7 C 1,4 C 9,1 C 5,0 C 5,6 C 90 % 8 cb 1016,8 hPa #0,0 l/m 5,3 km/h (1 Bft) SW - #0 min. #0,000 mm 0,0 UV-I 0 W/m 1,2 C 2,2 C 9,8 km/h (2 Bft)